South Seaville, New Jersey
Current Conditions -  °F | °C
As of 4:55 AM on Wednesday 26 Nov 2014 (Local Time) from KWWD Reporting Station
Overcast Overcast  
Wind Chill: 40°   Ceiling: 6500
Heat Index: 45°   Visibility: 5mi
Dew Point: 37°   Wind: 9mph
Humidity: 76%   Direction: 50°NE
Pressure: 30.08"   Gusts: NA
Location:  39.18°N, 74.76°W
Report Text: KWWD 260955Z AUTO 05008KT 5SM FEW044 OVC065 07/03 A3008 RMK AO1 P0007
Loading
Personal Weather Stations






























Interactive Weather Map New forecast layout! Learn more

10-Day Weather Forecast

Advertisements
Track Severe Weather on mobile